sensor_id;sensor_type;location;lat;lon;timestamp;temperature;humidity
7388;DHT22;3735;50.136;11.062;2024-03-23T00:53:34;8.20;99.90
7388;DHT22;3735;50.136;11.062;2024-03-23T00:56:00;8.30;99.90
7388;DHT22;3735;50.136;11.062;2024-03-23T00:58:25;8.30;99.90
7388;DHT22;3735;50.136;11.062;2024-03-23T01:00:51;8.20;99.90
7388;DHT22;3735;50.136;11.062;2024-03-23T01:03:17;8.20;99.90
7388;DHT22;3735;50.136;11.062;2024-03-23T01:05:43;8.20;99.90
7388;DHT22;3735;50.136;11.062;2024-03-23T01:08:09;8.20;99.90
7388;DHT22;3735;50.136;11.062;2024-03-23T01:10:34;8.30;99.90
7388;DHT22;3735;50.136;11.062;2024-03-23T01:13:00;8.30;99.90
7388;DHT22;3735;50.136;11.062;2024-03-23T01:15:26;8.40;99.90
7388;DHT22;3735;50.136;11.062;2024-03-23T01:17:51;8.50;99.90
7388;DHT22;3735;50.136;11.062;2024-03-23T01:20:17;8.60;99.90
7388;DHT22;3735;50.136;11.062;2024-03-23T01:22:43;8.80;99.90
7388;DHT22;3735;50.136;11.062;2024-03-23T01:25:09;8.90;99.90
7388;DHT22;3735;50.136;11.062;2024-03-23T01:27:34;9.00;99.90
7388;DHT22;3735;50.136;11.062;2024-03-23T01:30:00;9.10;99.90
7388;DHT22;3735;50.136;11.062;2024-03-23T01:32:26;9.00;99.90
7388;DHT22;3735;50.136;11.062;2024-03-23T01:34:52;9.00;99.90
7388;DHT22;3735;50.136;11.062;2024-03-23T01:37:17;9.00;99.90
7388;DHT22;3735;50.136;11.062;2024-03-23T01:39:43;8.90;99.90
7388;DHT22;3735;50.136;11.062;2024-03-23T01:42:09;8.70;99.90
7388;DHT22;3735;50.136;11.062;2024-03-23T01:44:35;8.60;99.90
7388;DHT22;3735;50.136;11.062;2024-03-23T01:47:01;8.40;99.90
7388;DHT22;3735;50.136;11.062;2024-03-23T01:49:26;8.20;99.90
7388;DHT22;3735;50.136;11.062;2024-03-23T01:51:52;8.00;99.90
7388;DHT22;3735;50.136;11.062;2024-03-23T01:54:18;7.80;99.90
7388;DHT22;3735;50.136;11.062;2024-03-23T01:56:44;7.70;99.90
7388;DHT22;3735;50.136;11.062;2024-03-23T01:59:10;7.60;99.90
7388;DHT22;3735;50.136;11.062;2024-03-23T02:01:36;7.70;99.90
7388;DHT22;3735;50.136;11.062;2024-03-23T02:04:02;7.80;99.90
7388;DHT22;3735;50.136;11.062;2024-03-23T02:06:28;7.90;99.90
7388;DHT22;3735;50.136;11.062;2024-03-23T02:08:57;8.00;99.90
7388;DHT22;3735;50.136;11.062;2024-03-23T02:11:23;8.00;99.90
7388;DHT22;3735;50.136;11.062;2024-03-23T02:13:49;8.10;99.90
7388;DHT22;3735;50.136;11.062;2024-03-23T02:16:14;8.10;99.90
7388;DHT22;3735;50.136;11.062;2024-03-23T02:18:40;8.10;99.90
7388;DHT22;3735;50.136;11.062;2024-03-23T02:21:06;8.00;99.90
7388;DHT22;3735;50.136;11.062;2024-03-23T02:23:32;7.80;99.90
7388;DHT22;3735;50.136;11.062;2024-03-23T02:25:58;7.70;99.90
7388;DHT22;3735;50.136;11.062;2024-03-23T02:28:23;7.80;99.90
7388;DHT22;3735;50.136;11.062;2024-03-23T02:30:49;7.70;99.90
7388;DHT22;3735;50.136;11.062;2024-03-23T02:33:15;7.60;99.90
7388;DHT22;3735;50.136;11.062;2024-03-23T02:35:42;7.50;99.90
7388;DHT22;3735;50.136;11.062;2024-03-23T02:38:08;7.30;99.90
7388;DHT22;3735;50.136;11.062;2024-03-23T02:40:34;7.20;99.90
7388;DHT22;3735;50.136;11.062;2024-03-23T02:43:00;7.20;99.90
7388;DHT22;3735;50.136;11.062;2024-03-23T02:45:26;7.20;99.90
7388;DHT22;3735;50.136;11.062;2024-03-23T02:47:52;7.30;99.90
7388;DHT22;3735;50.136;11.062;2024-03-23T02:50:19;7.40;99.90
7388;DHT22;3735;50.136;11.062;2024-03-23T02:52:45;7.40;99.90
7388;DHT22;3735;50.136;11.062;2024-03-23T02:55:10;7.40;99.90
7388;DHT22;3735;50.136;11.062;2024-03-23T02:57:36;7.40;99.90
7388;DHT22;3735;50.136;11.062;2024-03-23T03:00:02;7.30;99.90
7388;DHT22;3735;50.136;11.062;2024-03-23T03:02:28;7.20;99.90
7388;DHT22;3735;50.136;11.062;2024-03-23T03:04:54;7.10;99.90
7388;DHT22;3735;50.136;11.062;2024-03-23T03:07:20;7.00;99.90
7388;DHT22;3735;50.136;11.062;2024-03-23T03:09:46;6.90;99.90
7388;DHT22;3735;50.136;11.062;2024-03-23T03:12:11;6.90;99.90
7388;DHT22;3735;50.136;11.062;2024-03-23T03:14:37;6.90;99.90
7388;DHT22;3735;50.136;11.062;2024-03-23T03:17:03;7.00;99.90
7388;DHT22;3735;50.136;11.062;2024-03-23T03:19:29;7.20;99.90
7388;DHT22;3735;50.136;11.062;2024-03-23T03:21:55;7.40;99.90
7388;DHT22;3735;50.136;11.062;2024-03-23T03:24:21;7.60;99.90
7388;DHT22;3735;50.136;11.062;2024-03-23T03:26:47;7.70;99.90
7388;DHT22;3735;50.136;11.062;2024-03-23T03:29:13;7.80;99.90
7388;DHT22;3735;50.136;11.062;2024-03-23T03:31:39;7.80;99.90
7388;DHT22;3735;50.136;11.062;2024-03-23T03:34:05;7.80;99.90
7388;DHT22;3735;50.136;11.062;2024-03-23T03:36:31;7.80;99.90
7388;DHT22;3735;50.136;11.062;2024-03-23T03:38:56;7.70;99.90
7388;DHT22;3735;50.136;11.062;2024-03-23T03:41:22;7.60;99.90
7388;DHT22;3735;50.136;11.062;2024-03-23T03:43:48;7.60;99.90
7388;DHT22;3735;50.136;11.062;2024-03-23T03:46:14;7.60;99.90
7388;DHT22;3735;50.136;11.062;2024-03-23T03:48:39;7.60;99.90
7388;DHT22;3735;50.136;11.062;2024-03-23T03:51:05;7.60;99.90
7388;DHT22;3735;50.136;11.062;2024-03-23T03:53:31;7.60;99.90
7388;DHT22;3735;50.136;11.062;2024-03-23T03:56:00;7.60;99.90
7388;DHT22;3735;50.136;11.062;2024-03-23T03:58:27;7.70;99.90
7388;DHT22;3735;50.136;11.062;2024-03-23T04:00:53;7.80;99.90
7388;DHT22;3735;50.136;11.062;2024-03-23T04:03:19;7.80;99.90
7388;DHT22;3735;50.136;11.062;2024-03-23T04:05:53;7.90;99.90
7388;DHT22;3735;50.136;11.062;2024-03-23T04:08:20;7.90;99.90
7388;DHT22;3735;50.136;11.062;2024-03-23T04:10:46;7.90;99.90
7388;DHT22;3735;50.136;11.062;2024-03-23T04:13:13;7.90;99.90
7388;DHT22;3735;50.136;11.062;2024-03-23T04:15:39;7.90;99.90
7388;DHT22;3735;50.136;11.062;2024-03-23T04:18:05;7.90;99.90
7388;DHT22;3735;50.136;11.062;2024-03-23T04:20:31;7.80;99.90
7388;DHT22;3735;50.136;11.062;2024-03-23T04:22:58;7.80;99.90
7388;DHT22;3735;50.136;11.062;2024-03-23T04:25:24;7.80;99.90
7388;DHT22;3735;50.136;11.062;2024-03-23T04:27:50;7.80;99.90
7388;DHT22;3735;50.136;11.062;2024-03-23T04:30:16;7.80;99.90
7388;DHT22;3735;50.136;11.062;2024-03-23T04:32:43;7.80;99.90
7388;DHT22;3735;50.136;11.062;2024-03-23T04:35:09;7.80;99.90
7388;DHT22;3735;50.136;11.062;2024-03-23T04:37:38;7.80;99.90
7388;DHT22;3735;50.136;11.062;2024-03-23T04:40:07;7.70;99.90
7388;DHT22;3735;50.136;11.062;2024-03-23T04:42:33;7.70;99.90
7388;DHT22;3735;50.136;11.062;2024-03-23T04:44:59;7.70;99.90
7388;DHT22;3735;50.136;11.062;2024-03-23T04:47:26;7.70;99.90
7388;DHT22;3735;50.136;11.062;2024-03-23T04:49:52;7.70;99.90
7388;DHT22;3735;50.136;11.062;2024-03-23T04:52:18;7.70;99.90
7388;DHT22;3735;50.136;11.062;2024-03-23T05:13:32;8.80;99.90
7388;DHT22;3735;50.136;11.062;2024-03-23T05:21:00;9.10;99.90
7388;DHT22;3735;50.136;11.062;2024-03-23T06:07:58;10.20;99.90
7388;DHT22;3735;50.136;11.062;2024-03-23T06:30:26;11.20;99.90
7388;DHT22;3735;50.136;11.062;2024-03-23T06:41:37;11.10;99.90
7388;DHT22;3735;50.136;11.062;2024-03-23T06:47:54;11.10;99.90
7388;DHT22;3735;50.136;11.062;2024-03-23T06:50:20;11.10;99.90
7388;DHT22;3735;50.136;11.062;2024-03-23T06:52:49;11.00;99.90
7388;DHT22;3735;50.136;11.062;2024-03-23T06:55:15;10.90;99.90
7388;DHT22;3735;50.136;11.062;2024-03-23T06:57:40;10.70;99.90
7388;DHT22;3735;50.136;11.062;2024-03-23T07:00:06;10.70;99.90
7388;DHT22;3735;50.136;11.062;2024-03-23T07:02:35;10.70;99.90
7388;DHT22;3735;50.136;11.062;2024-03-23T07:05:01;10.70;99.90
7388;DHT22;3735;50.136;11.062;2024-03-23T07:07:27;10.60;99.90
7388;DHT22;3735;50.136;11.062;2024-03-23T07:09:53;10.50;99.90
7388;DHT22;3735;50.136;11.062;2024-03-23T07:12:19;10.40;99.90
7388;DHT22;3735;50.136;11.062;2024-03-23T07:14:46;10.20;99.90
7388;DHT22;3735;50.136;11.062;2024-03-23T07:17:12;10.10;99.90
7388;DHT22;3735;50.136;11.062;2024-03-23T07:19:37;10.00;99.90
7388;DHT22;3735;50.136;11.062;2024-03-23T07:22:03;10.00;99.90
7388;DHT22;3735;50.136;11.062;2024-03-23T07:24:29;9.90;99.90
7388;DHT22;3735;50.136;11.062;2024-03-23T07:26:56;10.00;99.90
7388;DHT22;3735;50.136;11.062;2024-03-23T07:29:23;10.00;99.90
7388;DHT22;3735;50.136;11.062;2024-03-23T07:31:49;10.10;99.90
7388;DHT22;3735;50.136;11.062;2024-03-23T07:34:14;10.10;99.90
7388;DHT22;3735;50.136;11.062;2024-03-23T07:36:40;10.10;99.90
7388;DHT22;3735;50.136;11.062;2024-03-23T07:39:06;10.10;99.90
7388;DHT22;3735;50.136;11.062;2024-03-23T07:41:33;10.10;99.90
7388;DHT22;3735;50.136;11.062;2024-03-23T07:44:00;10.10;99.90
7388;DHT22;3735;50.136;11.062;2024-03-23T07:46:26;10.30;99.90
7388;DHT22;3735;50.136;11.062;2024-03-23T07:48:52;10.40;99.90
7388;DHT22;3735;50.136;11.062;2024-03-23T07:51:22;10.60;99.90
7388;DHT22;3735;50.136;11.062;2024-03-23T07:53:48;10.80;99.90
7388;DHT22;3735;50.136;11.062;2024-03-23T07:56:15;10.90;99.90
7388;DHT22;3735;50.136;11.062;2024-03-23T07:58:42;11.10;99.90
7388;DHT22;3735;50.136;11.062;2024-03-23T08:01:12;11.30;99.90
7388;DHT22;3735;50.136;11.062;2024-03-23T08:03:45;11.30;99.90
7388;DHT22;3735;50.136;11.062;2024-03-23T08:06:18;11.00;99.90
7388;DHT22;3735;50.136;11.062;2024-03-23T08:08:47;10.50;99.90
7388;DHT22;3735;50.136;11.062;2024-03-23T08:11:14;10.20;99.90
7388;DHT22;3735;50.136;11.062;2024-03-23T08:13:41;10.10;99.90
7388;DHT22;3735;50.136;11.062;2024-03-23T08:16:10;9.90;99.90
7388;DHT22;3735;50.136;11.062;2024-03-23T08:18:37;9.80;99.90
7388;DHT22;3735;50.136;11.062;2024-03-23T08:21:07;9.70;99.90
7388;DHT22;3735;50.136;11.062;2024-03-23T08:23:34;9.60;99.90
7388;DHT22;3735;50.136;11.062;2024-03-23T08:26:10;9.60;99.90
7388;DHT22;3735;50.136;11.062;2024-03-23T08:28:41;9.50;99.90
7388;DHT22;3735;50.136;11.062;2024-03-23T08:31:08;9.40;99.90
7388;DHT22;3735;50.136;11.062;2024-03-23T08:33:36;9.20;99.90
7388;DHT22;3735;50.136;11.062;2024-03-23T08:36:05;9.10;99.90
7388;DHT22;3735;50.136;11.062;2024-03-23T08:38:33;8.90;99.90
7388;DHT22;3735;50.136;11.062;2024-03-23T08:43:40;8.60;99.90
7388;DHT22;3735;50.136;11.062;2024-03-23T08:46:14;8.40;99.90
7388;DHT22;3735;50.136;11.062;2024-03-23T08:48:43;8.30;99.90
7388;DHT22;3735;50.136;11.062;2024-03-23T08:51:19;8.10;99.90
7388;DHT22;3735;50.136;11.062;2024-03-23T08:53:45;8.00;99.90
7388;DHT22;3735;50.136;11.062;2024-03-23T08:56:11;7.90;99.90
7388;DHT22;3735;50.136;11.062;2024-03-23T08:58:38;7.80;99.90
7388;DHT22;3735;50.136;11.062;2024-03-23T09:01:12;7.60;99.90
7388;DHT22;3735;50.136;11.062;2024-03-23T09:03:38;7.30;99.90
7388;DHT22;3735;50.136;11.062;2024-03-23T09:06:12;7.30;99.90
7388;DHT22;3735;50.136;11.062;2024-03-23T09:08:40;7.50;99.90
7388;DHT22;3735;50.136;11.062;2024-03-23T09:11:10;7.60;99.90
7388;DHT22;3735;50.136;11.062;2024-03-23T09:13:40;7.70;99.90
7388;DHT22;3735;50.136;11.062;2024-03-23T09:16:07;8.40;99.90
7388;DHT22;3735;50.136;11.062;2024-03-23T09:18:36;9.80;99.90
7388;DHT22;3735;50.136;11.062;2024-03-23T09:21:03;11.80;99.90
7388;DHT22;3735;50.136;11.062;2024-03-23T09:23:29;12.50;99.90
7388;DHT22;3735;50.136;11.062;2024-03-23T09:25:55;13.60;99.90
7388;DHT22;3735;50.136;11.062;2024-03-23T09:28:22;14.20;99.90
7388;DHT22;3735;50.136;11.062;2024-03-23T09:30:48;13.90;99.90
7388;DHT22;3735;50.136;11.062;2024-03-23T09:33:14;13.70;99.90
7388;DHT22;3735;50.136;11.062;2024-03-23T09:35:41;14.70;99.90
7388;DHT22;3735;50.136;11.062;2024-03-23T09:38:08;14.30;99.90
7388;DHT22;3735;50.136;11.062;2024-03-23T09:40:39;14.00;99.90
7388;DHT22;3735;50.136;11.062;2024-03-23T09:43:07;14.70;99.90
7388;DHT22;3735;50.136;11.062;2024-03-23T09:45:38;15.30;99.90
7388;DHT22;3735;50.136;11.062;2024-03-23T09:48:06;13.90;99.90
7388;DHT22;3735;50.136;11.062;2024-03-23T09:50:39;13.20;99.90
7388;DHT22;3735;50.136;11.062;2024-03-23T09:53:11;14.60;99.90
7388;DHT22;3735;50.136;11.062;2024-03-23T09:55:41;14.80;99.90
7388;DHT22;3735;50.136;11.062;2024-03-23T09:58:12;14.70;99.90
7388;DHT22;3735;50.136;11.062;2024-03-23T10:00:39;14.00;99.90
7388;DHT22;3735;50.136;11.062;2024-03-23T10:03:05;14.20;99.90
7388;DHT22;3735;50.136;11.062;2024-03-23T10:05:32;14.10;99.90
7388;DHT22;3735;50.136;11.062;2024-03-23T10:10:42;11.60;99.90
7388;DHT22;3735;50.136;11.062;2024-03-23T10:13:08;11.90;99.90
7388;DHT22;3735;50.136;11.062;2024-03-23T10:15:35;13.40;99.90
7388;DHT22;3735;50.136;11.062;2024-03-23T10:18:20;14.60;99.90
7388;DHT22;3735;50.136;11.062;2024-03-23T10:23:33;14.60;99.90
7388;DHT22;3735;50.136;11.062;2024-03-23T10:26:18;14.10;99.90
7388;DHT22;3735;50.136;11.062;2024-03-23T10:29:01;14.70;99.90
7388;DHT22;3735;50.136;11.062;2024-03-23T10:31:28;15.10;99.90
7388;DHT22;3735;50.136;11.062;2024-03-23T10:33:54;15.40;99.90
7388;DHT22;3735;50.136;11.062;2024-03-23T10:36:21;14.50;99.90
7388;DHT22;3735;50.136;11.062;2024-03-23T10:38:50;14.60;99.90
7388;DHT22;3735;50.136;11.062;2024-03-23T10:41:17;16.10;99.90
7388;DHT22;3735;50.136;11.062;2024-03-23T10:43:46;16.20;99.90
7388;DHT22;3735;50.136;11.062;2024-03-23T10:46:12;15.50;99.90
7388;DHT22;3735;50.136;11.062;2024-03-23T10:48:38;14.70;99.90
7388;DHT22;3735;50.136;11.062;2024-03-23T10:51:07;14.50;99.90
7388;DHT22;3735;50.136;11.062;2024-03-23T10:53:34;16.00;99.90
7388;DHT22;3735;50.136;11.062;2024-03-23T10:56:02;16.10;99.90
7388;DHT22;3735;50.136;11.062;2024-03-23T10:58:49;15.40;99.90
7388;DHT22;3735;50.136;11.062;2024-03-23T11:01:15;14.50;99.90
7388;DHT22;3735;50.136;11.062;2024-03-23T11:03:45;13.70;99.90
7388;DHT22;3735;50.136;11.062;2024-03-23T11:06:38;13.20;99.90
7388;DHT22;3735;50.136;11.062;2024-03-23T11:09:38;13.20;99.90
7388;DHT22;3735;50.136;11.062;2024-03-23T11:15:12;15.70;99.90
7388;DHT22;3735;50.136;11.062;2024-03-23T11:17:38;17.90;99.90
7388;DHT22;3735;50.136;11.062;2024-03-23T11:20:05;19.60;99.90
7388;DHT22;3735;50.136;11.062;2024-03-23T11:22:38;21.00;99.90
7388;DHT22;3735;50.136;11.062;2024-03-23T11:25:16;22.30;99.90
7388;DHT22;3735;50.136;11.062;2024-03-23T11:27:46;20.50;99.90
7388;DHT22;3735;50.136;11.062;2024-03-23T11:30:13;18.20;99.90
7388;DHT22;3735;50.136;11.062;2024-03-23T11:32:48;16.90;99.90
7388;DHT22;3735;50.136;11.062;2024-03-23T11:35:30;17.80;99.90
7388;DHT22;3735;50.136;11.062;2024-03-23T11:38:10;19.00;99.90
7388;DHT22;3735;50.136;11.062;2024-03-23T11:40:39;18.00;99.90
7388;DHT22;3735;50.136;11.062;2024-03-23T11:43:10;16.60;99.90
7388;DHT22;3735;50.136;11.062;2024-03-23T11:48:15;13.90;99.90
7388;DHT22;3735;50.136;11.062;2024-03-23T11:50:45;12.50;99.90
7388;DHT22;3735;50.136;11.062;2024-03-23T11:53:20;13.80;99.90
7388;DHT22;3735;50.136;11.062;2024-03-23T11:58:26;16.50;99.90
7388;DHT22;3735;50.136;11.062;2024-03-23T12:01:02;17.30;99.90
7388;DHT22;3735;50.136;11.062;2024-03-23T12:03:30;18.80;99.90
7388;DHT22;3735;50.136;11.062;2024-03-23T12:06:02;17.60;99.90
7388;DHT22;3735;50.136;11.062;2024-03-23T12:08:32;16.30;99.90
7388;DHT22;3735;50.136;11.062;2024-03-23T12:13:37;15.00;99.90
7388;DHT22;3735;50.136;11.062;2024-03-23T12:16:20;16.40;99.90
7388;DHT22;3735;50.136;11.062;2024-03-23T12:18:49;17.90;99.90
7388;DHT22;3735;50.136;11.062;2024-03-23T12:21:18;18.90;99.90
7388;DHT22;3735;50.136;11.062;2024-03-23T12:23:44;19.50;99.90
7388;DHT22;3735;50.136;11.062;2024-03-23T12:26:12;20.70;99.90
7388;DHT22;3735;50.136;11.062;2024-03-23T12:28:38;19.90;99.90
7388;DHT22;3735;50.136;11.062;2024-03-23T12:31:04;19.80;99.90
7388;DHT22;3735;50.136;11.062;2024-03-23T12:33:33;20.30;99.90
7388;DHT22;3735;50.136;11.062;2024-03-23T12:35:59;20.70;99.90
7388;DHT22;3735;50.136;11.062;2024-03-23T12:38:25;22.20;99.90
7388;DHT22;3735;50.136;11.062;2024-03-23T12:40:51;22.50;99.90
7388;DHT22;3735;50.136;11.062;2024-03-23T12:43:17;22.30;99.90
7388;DHT22;3735;50.136;11.062;2024-03-23T12:45:48;20.30;99.90
7388;DHT22;3735;50.136;11.062;2024-03-23T12:48:14;18.10;99.90
7388;DHT22;3735;50.136;11.062;2024-03-23T12:50:43;18.70;99.90
7388;DHT22;3735;50.136;11.062;2024-03-23T12:53:09;17.80;99.90
7388;DHT22;3735;50.136;11.062;2024-03-23T12:55:35;16.50;99.90
7388;DHT22;3735;50.136;11.062;2024-03-23T12:58:01;15.00;99.90
7388;DHT22;3735;50.136;11.062;2024-03-23T13:00:28;14.00;99.90
7388;DHT22;3735;50.136;11.062;2024-03-23T13:02:53;13.00;99.90
7388;DHT22;3735;50.136;11.062;2024-03-23T13:05:19;12.70;99.90
7388;DHT22;3735;50.136;11.062;2024-03-23T13:07:45;12.40;99.90
7388;DHT22;3735;50.136;11.062;2024-03-23T13:10:10;12.10;99.90
7388;DHT22;3735;50.136;11.062;2024-03-23T13:12:36;11.90;99.90
7388;DHT22;3735;50.136;11.062;2024-03-23T13:15:02;11.70;99.90
7388;DHT22;3735;50.136;11.062;2024-03-23T13:17:28;11.70;99.90
7388;DHT22;3735;50.136;11.062;2024-03-23T13:19:54;12.00;99.90
7388;DHT22;3735;50.136;11.062;2024-03-23T13:22:23;12.10;99.90
7388;DHT22;3735;50.136;11.062;2024-03-23T13:24:49;11.90;99.90
7388;DHT22;3735;50.136;11.062;2024-03-23T13:27:16;11.90;99.90
7388;DHT22;3735;50.136;11.062;2024-03-23T13:29:41;12.10;99.90
7388;DHT22;3735;50.136;11.062;2024-03-23T13:32:07;12.50;99.90
7388;DHT22;3735;50.136;11.062;2024-03-23T13:34:34;12.60;99.90
7388;DHT22;3735;50.136;11.062;2024-03-23T13:37:00;12.50;99.90
7388;DHT22;3735;50.136;11.062;2024-03-23T13:39:27;12.10;99.90
7388;DHT22;3735;50.136;11.062;2024-03-23T13:41:53;11.70;99.90
7388;DHT22;3735;50.136;11.062;2024-03-23T13:44:22;11.50;99.90
7388;DHT22;3735;50.136;11.062;2024-03-23T13:46:48;11.20;99.90
7388;DHT22;3735;50.136;11.062;2024-03-23T13:49:28;11.00;99.90
7388;DHT22;3735;50.136;11.062;2024-03-23T13:51:56;10.90;99.90
7388;DHT22;3735;50.136;11.062;2024-03-23T13:54:24;10.60;99.90
7388;DHT22;3735;50.136;11.062;2024-03-23T13:56:55;10.70;99.90
7388;DHT22;3735;50.136;11.062;2024-03-23T13:59:22;11.10;99.90
7388;DHT22;3735;50.136;11.062;2024-03-23T14:01:51;12.10;99.90
7388;DHT22;3735;50.136;11.062;2024-03-23T14:04:17;13.20;99.90
7388;DHT22;3735;50.136;11.062;2024-03-23T14:06:46;13.30;99.90
7388;DHT22;3735;50.136;11.062;2024-03-23T14:09:15;13.90;99.90
7388;DHT22;3735;50.136;11.062;2024-03-23T14:11:46;14.40;99.90
7388;DHT22;3735;50.136;11.062;2024-03-23T14:14:12;14.30;99.90
7388;DHT22;3735;50.136;11.062;2024-03-23T14:16:38;14.70;99.90
7388;DHT22;3735;50.136;11.062;2024-03-23T14:19:04;14.80;99.90
7388;DHT22;3735;50.136;11.062;2024-03-23T14:21:31;14.70;99.90
7388;DHT22;3735;50.136;11.062;2024-03-23T14:23:57;15.50;99.90
7388;DHT22;3735;50.136;11.062;2024-03-23T14:26:22;16.00;99.90
7388;DHT22;3735;50.136;11.062;2024-03-23T14:28:49;15.80;99.90
7388;DHT22;3735;50.136;11.062;2024-03-23T14:31:15;15.90;99.90
7388;DHT22;3735;50.136;11.062;2024-03-23T14:33:42;15.60;99.90
7388;DHT22;3735;50.136;11.062;2024-03-23T14:36:15;15.20;99.90
7388;DHT22;3735;50.136;11.062;2024-03-23T14:38:47;14.80;99.90
7388;DHT22;3735;50.136;11.062;2024-03-23T14:41:13;14.20;99.90
7388;DHT22;3735;50.136;11.062;2024-03-23T14:43:39;14.20;99.90
7388;DHT22;3735;50.136;11.062;2024-03-23T14:48:43;13.70;99.90
7388;DHT22;3735;50.136;11.062;2024-03-23T14:51:10;12.20;99.90
7388;DHT22;3735;50.136;11.062;2024-03-23T14:53:38;11.40;99.90
7388;DHT22;3735;50.136;11.062;2024-03-23T14:56:08;11.10;99.90
7388;DHT22;3735;50.136;11.062;2024-03-23T14:58:37;11.40;99.90
7388;DHT22;3735;50.136;11.062;2024-03-23T15:01:04;11.40;99.90
7388;DHT22;3735;50.136;11.062;2024-03-23T15:03:37;12.40;99.90
7388;DHT22;3735;50.136;11.062;2024-03-23T15:06:08;13.30;99.90
7388;DHT22;3735;50.136;11.062;2024-03-23T15:08:35;13.00;99.90
7388;DHT22;3735;50.136;11.062;2024-03-23T15:11:02;12.50;99.90
7388;DHT22;3735;50.136;11.062;2024-03-23T15:13:32;12.30;99.90
7388;DHT22;3735;50.136;11.062;2024-03-23T15:16:02;12.50;99.90
7388;DHT22;3735;50.136;11.062;2024-03-23T15:18:34;11.70;99.90
7388;DHT22;3735;50.136;11.062;2024-03-23T15:21:02;11.40;99.90
7388;DHT22;3735;50.136;11.062;2024-03-23T15:23:31;12.40;99.90
7388;DHT22;3735;50.136;11.062;2024-03-23T15:25:59;12.50;99.90
7388;DHT22;3735;50.136;11.062;2024-03-23T15:28:26;12.60;99.90
7388;DHT22;3735;50.136;11.062;2024-03-23T15:31:06;12.20;99.90
7388;DHT22;3735;50.136;11.062;2024-03-23T15:33:33;11.60;99.90
7388;DHT22;3735;50.136;11.062;2024-03-23T15:36:02;10.80;99.90
7388;DHT22;3735;50.136;11.062;2024-03-23T15:38:31;10.40;99.90
7388;DHT22;3735;50.136;11.062;2024-03-23T15:41:00;10.00;99.90
7388;DHT22;3735;50.136;11.062;2024-03-23T15:43:26;9.60;99.90
7388;DHT22;3735;50.136;11.062;2024-03-23T15:45:58;9.40;99.90
7388;DHT22;3735;50.136;11.062;2024-03-23T15:48:32;9.30;99.90
7388;DHT22;3735;50.136;11.062;2024-03-23T15:51:02;9.20;99.90
7388;DHT22;3735;50.136;11.062;2024-03-23T15:53:32;9.10;99.90
7388;DHT22;3735;50.136;11.062;2024-03-23T15:58:29;8.80;99.90
7388;DHT22;3735;50.136;11.062;2024-03-23T16:01:07;8.70;99.90
7388;DHT22;3735;50.136;11.062;2024-03-23T16:03:37;8.60;99.90
7388;DHT22;3735;50.136;11.062;2024-03-23T16:06:04;7.90;99.90
7388;DHT22;3735;50.136;11.062;2024-03-23T16:08:33;6.90;99.90
7388;DHT22;3735;50.136;11.062;2024-03-23T16:11:07;6.20;99.90
7388;DHT22;3735;50.136;11.062;2024-03-23T16:13:34;5.70;99.90
7388;DHT22;3735;50.136;11.062;2024-03-23T16:16:02;5.30;99.90
7388;DHT22;3735;50.136;11.062;2024-03-23T16:18:36;5.20;99.90
7388;DHT22;3735;50.136;11.062;2024-03-23T16:21:06;5.30;99.90
7388;DHT22;3735;50.136;11.062;2024-03-23T16:23:33;5.50;99.90
7388;DHT22;3735;50.136;11.062;2024-03-23T16:26:00;6.20;99.90
7388;DHT22;3735;50.136;11.062;2024-03-23T16:28:32;6.30;99.90
7388;DHT22;3735;50.136;11.062;2024-03-23T16:31:03;6.10;99.90
7388;DHT22;3735;50.136;11.062;2024-03-23T16:33:30;6.80;99.90
7388;DHT22;3735;50.136;11.062;2024-03-23T16:36:03;7.70;99.90
7388;DHT22;3735;50.136;11.062;2024-03-23T16:38:35;7.90;99.90
7388;DHT22;3735;50.136;11.062;2024-03-23T16:41:06;7.30;99.90
7388;DHT22;3735;50.136;11.062;2024-03-23T16:43:39;7.10;99.90
7388;DHT22;3735;50.136;11.062;2024-03-23T16:46:10;7.60;99.90
7388;DHT22;3735;50.136;11.062;2024-03-23T16:48:38;8.20;99.90
7388;DHT22;3735;50.136;11.062;2024-03-23T16:51:05;8.60;99.90
7388;DHT22;3735;50.136;11.062;2024-03-23T16:53:35;8.80;99.90
7388;DHT22;3735;50.136;11.062;2024-03-23T16:56:03;9.00;99.90
7388;DHT22;3735;50.136;11.062;2024-03-23T16:58:32;8.50;99.90
7388;DHT22;3735;50.136;11.062;2024-03-23T17:01:06;7.80;99.90
7388;DHT22;3735;50.136;11.062;2024-03-23T17:03:49;6.80;99.90
7388;DHT22;3735;50.136;11.062;2024-03-23T17:06:16;6.10;99.90
7388;DHT22;3735;50.136;11.062;2024-03-23T17:08:45;5.50;99.90
7388;DHT22;3735;50.136;11.062;2024-03-23T17:11:14;5.00;99.90
7388;DHT22;3735;50.136;11.062;2024-03-23T17:13:42;4.60;99.90
7388;DHT22;3735;50.136;11.062;2024-03-23T17:16:08;4.30;99.90
7388;DHT22;3735;50.136;11.062;2024-03-23T17:18:36;4.00;99.90
7388;DHT22;3735;50.136;11.062;2024-03-23T17:21:02;3.80;99.90
7388;DHT22;3735;50.136;11.062;2024-03-23T17:23:29;3.70;99.90
7388;DHT22;3735;50.136;11.062;2024-03-23T17:25:56;3.50;99.90
7388;DHT22;3735;50.136;11.062;2024-03-23T17:28:23;3.40;99.90
7388;DHT22;3735;50.136;11.062;2024-03-23T17:30:49;3.20;99.90
7388;DHT22;3735;50.136;11.062;2024-03-23T17:33:16;3.10;99.90
7388;DHT22;3735;50.136;11.062;2024-03-23T17:35:45;3.00;99.90
7388;DHT22;3735;50.136;11.062;2024-03-23T17:38:14;2.80;99.90
7388;DHT22;3735;50.136;11.062;2024-03-23T17:40:41;2.70;99.90
7388;DHT22;3735;50.136;11.062;2024-03-23T17:43:07;2.60;99.90
7388;DHT22;3735;50.136;11.062;2024-03-23T17:45:37;2.50;99.90
7388;DHT22;3735;50.136;11.062;2024-03-23T17:48:05;2.40;99.90
7388;DHT22;3735;50.136;11.062;2024-03-23T17:50:31;2.50;99.90
7388;DHT22;3735;50.136;11.062;2024-03-23T17:53:03;2.50;99.90
7388;DHT22;3735;50.136;11.062;2024-03-23T17:55:29;2.40;99.90
7388;DHT22;3735;50.136;11.062;2024-03-23T17:57:55;2.30;99.90
7388;DHT22;3735;50.136;11.062;2024-03-23T18:00:24;2.30;99.90
7388;DHT22;3735;50.136;11.062;2024-03-23T18:02:50;2.30;99.90
7388;DHT22;3735;50.136;11.062;2024-03-23T18:05:24;2.30;99.90
7388;DHT22;3735;50.136;11.062;2024-03-23T18:07:53;2.20;99.90
7388;DHT22;3735;50.136;11.062;2024-03-23T18:10:19;2.10;99.90
7388;DHT22;3735;50.136;11.062;2024-03-23T18:12:45;2.20;99.90
7388;DHT22;3735;50.136;11.062;2024-03-23T18:15:13;2.00;99.90
7388;DHT22;3735;50.136;11.062;2024-03-23T18:17:39;2.00;99.90
7388;DHT22;3735;50.136;11.062;2024-03-23T18:20:08;1.90;99.90
7388;DHT22;3735;50.136;11.062;2024-03-23T18:22:35;1.90;99.90
7388;DHT22;3735;50.136;11.062;2024-03-23T18:25:04;1.90;99.90
7388;DHT22;3735;50.136;11.062;2024-03-23T18:27:31;1.90;99.90
7388;DHT22;3735;50.136;11.062;2024-03-23T18:30:03;1.80;99.90
7388;DHT22;3735;50.136;11.062;2024-03-23T18:32:30;1.80;99.90
7388;DHT22;3735;50.136;11.062;2024-03-23T18:34:56;1.80;99.90
7388;DHT22;3735;50.136;11.062;2024-03-23T18:37:21;2.00;99.90
7388;DHT22;3735;50.136;11.062;2024-03-23T18:39:47;2.10;99.90
7388;DHT22;3735;50.136;11.062;2024-03-23T18:42:14;2.20;99.90
7388;DHT22;3735;50.136;11.062;2024-03-23T18:44:39;2.30;99.90
7388;DHT22;3735;50.136;11.062;2024-03-23T18:47:05;2.40;99.90
7388;DHT22;3735;50.136;11.062;2024-03-23T18:49:31;2.50;99.90
7388;DHT22;3735;50.136;11.062;2024-03-23T18:51:57;2.60;99.90
7388;DHT22;3735;50.136;11.062;2024-03-23T18:54:22;2.70;99.90
7388;DHT22;3735;50.136;11.062;2024-03-23T18:56:48;2.80;99.90